sensor_id;sensor_type;location;lat;lon;timestamp;P1;durP1;ratioP1;P2;durP2;ratioP2
21804;SDS011;11064;47.102;15.452;2022-09-12T04:02:32;2.15;;;1.00;;
21804;SDS011;11064;47.102;15.452;2022-09-12T04:04:57;1.38;;;0.95;;
21804;SDS011;11064;47.102;15.452;2022-09-12T04:07:23;2.00;;;1.08;;
21804;SDS011;11064;47.102;15.452;2022-09-12T04:09:49;5.95;;;1.10;;
21804;SDS011;11064;47.102;15.452;2022-09-12T04:12:14;1.27;;;1.17;;
21804;SDS011;11064;47.102;15.452;2022-09-12T04:14:40;2.35;;;1.20;;
21804;SDS011;11064;47.102;15.452;2022-09-12T04:17:06;2.30;;;1.10;;
21804;SDS011;11064;47.102;15.452;2022-09-12T04:19:33;3.35;;;1.05;;
21804;SDS011;11064;47.102;15.452;2022-09-12T04:21:58;1.40;;;1.30;;
21804;SDS011;11064;47.102;15.452;2022-09-12T04:24:24;1.13;;;1.02;;
21804;SDS011;11064;47.102;15.452;2022-09-12T04:26:50;1.30;;;1.20;;
21804;SDS011;11064;47.102;15.452;2022-09-12T04:29:16;1.70;;;1.08;;
21804;SDS011;11064;47.102;15.452;2022-09-12T04:31:42;2.85;;;1.25;;
21804;SDS011;11064;47.102;15.452;2022-09-12T04:34:08;1.20;;;1.10;;
21804;SDS011;11064;47.102;15.452;2022-09-12T04:36:34;3.45;;;1.40;;
21804;SDS011;11064;47.102;15.452;2022-09-12T04:39:00;1.63;;;1.20;;
21804;SDS011;11064;47.102;15.452;2022-09-12T04:41:28;1.35;;;1.10;;
21804;SDS011;11064;47.102;15.452;2022-09-12T04:43:57;3.35;;;1.40;;
21804;SDS011;11064;47.102;15.452;2022-09-12T04:48:54;4.95;;;1.30;;
21804;SDS011;11064;47.102;15.452;2022-09-12T04:51:21;2.63;;;1.40;;
21804;SDS011;11064;47.102;15.452;2022-09-12T04:53:52;1.48;;;1.38;;
21804;SDS011;11064;47.102;15.452;2022-09-12T04:56:20;3.45;;;1.30;;
21804;SDS011;11064;47.102;15.452;2022-09-12T04:58:47;3.83;;;1.30;;
21804;SDS011;11064;47.102;15.452;2022-09-12T05:01:14;1.85;;;1.30;;
21804;SDS011;11064;47.102;15.452;2022-09-12T05:03:42;2.03;;;1.10;;
21804;SDS011;11064;47.102;15.452;2022-09-12T05:06:10;2.83;;;1.17;;
21804;SDS011;11064;47.102;15.452;2022-09-12T05:08:38;1.95;;;1.30;;
21804;SDS011;11064;47.102;15.452;2022-09-12T05:11:05;2.80;;;1.27;;
21804;SDS011;11064;47.102;15.452;2022-09-12T05:13:34;3.28;;;1.27;;
21804;SDS011;11064;47.102;15.452;2022-09-12T05:16:00;2.58;;;1.40;;
21804;SDS011;11064;47.102;15.452;2022-09-12T05:18:27;2.03;;;1.40;;
21804;SDS011;11064;47.102;15.452;2022-09-12T05:20:55;1.63;;;1.30;;
21804;SDS011;11064;47.102;15.452;2022-09-12T05:23:24;2.55;;;1.60;;
21804;SDS011;11064;47.102;15.452;2022-09-12T05:25:52;3.85;;;1.40;;
21804;SDS011;11064;47.102;15.452;2022-09-12T05:28:20;1.70;;;1.30;;
21804;SDS011;11064;47.102;15.452;2022-09-12T05:30:47;2.55;;;1.35;;
21804;SDS011;11064;47.102;15.452;2022-09-12T05:33:15;2.17;;;1.42;;
21804;SDS011;11064;47.102;15.452;2022-09-12T05:35:41;1.58;;;1.40;;
21804;SDS011;11064;47.102;15.452;2022-09-12T05:38:14;1.77;;;1.50;;
21804;SDS011;11064;47.102;15.452;2022-09-12T05:40:40;2.78;;;1.60;;
21804;SDS011;11064;47.102;15.452;2022-09-12T05:43:06;1.60;;;1.50;;
21804;SDS011;11064;47.102;15.452;2022-09-12T05:45:31;2.88;;;1.52;;
21804;SDS011;11064;47.102;15.452;2022-09-12T05:47:57;2.85;;;1.67;;
21804;SDS011;11064;47.102;15.452;2022-09-12T05:50:23;3.80;;;1.92;;
21804;SDS011;11064;47.102;15.452;2022-09-12T05:52:49;4.65;;;1.90;;
21804;SDS011;11064;47.102;15.452;2022-09-12T05:55:15;3.67;;;1.88;;
21804;SDS011;11064;47.102;15.452;2022-09-12T05:57:44;2.85;;;1.80;;
21804;SDS011;11064;47.102;15.452;2022-09-12T06:00:10;2.20;;;1.73;;
21804;SDS011;11064;47.102;15.452;2022-09-12T06:02:39;3.85;;;2.00;;
21804;SDS011;11064;47.102;15.452;2022-09-12T06:05:05;2.35;;;1.70;;
21804;SDS011;11064;47.102;15.452;2022-09-12T06:07:31;3.28;;;1.60;;
21804;SDS011;11064;47.102;15.452;2022-09-12T06:09:57;2.72;;;1.80;;
21804;SDS011;11064;47.102;15.452;2022-09-12T06:12:32;2.03;;;1.70;;
21804;SDS011;11064;47.102;15.452;2022-09-12T06:14:58;3.15;;;1.90;;
21804;SDS011;11064;47.102;15.452;2022-09-12T06:17:23;3.88;;;1.83;;
21804;SDS011;11064;47.102;15.452;2022-09-12T06:19:49;2.00;;;1.60;;
21804;SDS011;11064;47.102;15.452;2022-09-12T06:22:15;2.40;;;1.67;;
21804;SDS011;11064;47.102;15.452;2022-09-12T06:24:42;2.38;;;1.70;;
21804;SDS011;11064;47.102;15.452;2022-09-12T06:27:08;2.22;;;1.65;;
21804;SDS011;11064;47.102;15.452;2022-09-12T06:29:34;2.22;;;1.70;;
21804;SDS011;11064;47.102;15.452;2022-09-12T06:32:00;3.53;;;1.73;;
21804;SDS011;11064;47.102;15.452;2022-09-12T06:34:26;5.95;;;1.95;;
21804;SDS011;11064;47.102;15.452;2022-09-12T06:36:52;3.33;;;1.65;;
21804;SDS011;11064;47.102;15.452;2022-09-12T06:39:18;2.58;;;1.30;;
21804;SDS011;11064;47.102;15.452;2022-09-12T06:41:46;3.60;;;1.52;;
21804;SDS011;11064;47.102;15.452;2022-09-12T06:44:15;2.15;;;1.50;;
21804;SDS011;11064;47.102;15.452;2022-09-12T06:46:46;2.80;;;1.50;;
21804;SDS011;11064;47.102;15.452;2022-09-12T06:49:12;2.90;;;1.40;;
21804;SDS011;11064;47.102;15.452;2022-09-12T06:51:38;1.60;;;1.10;;
21804;SDS011;11064;47.102;15.452;2022-09-12T06:54:07;1.83;;;1.15;;
21804;SDS011;11064;47.102;15.452;2022-09-12T06:56:36;4.28;;;1.20;;
21804;SDS011;11064;47.102;15.452;2022-09-12T06:59:02;1.63;;;1.20;;
21804;SDS011;11064;47.102;15.452;2022-09-12T07:01:29;1.23;;;1.10;;
21804;SDS011;11064;47.102;15.452;2022-09-12T07:03:56;2.55;;;1.17;;
21804;SDS011;11064;47.102;15.452;2022-09-12T07:06:25;4.50;;;1.20;;
21804;SDS011;11064;47.102;15.452;2022-09-12T07:08:59;2.05;;;1.10;;
21804;SDS011;11064;47.102;15.452;2022-09-12T07:11:30;3.78;;;1.08;;
21804;SDS011;11064;47.102;15.452;2022-09-12T07:13:58;2.13;;;1.10;;
21804;SDS011;11064;47.102;15.452;2022-09-12T07:16:25;4.50;;;1.30;;
21804;SDS011;11064;47.102;15.452;2022-09-12T07:18:52;2.92;;;1.40;;
21804;SDS011;11064;47.102;15.452;2022-09-12T07:21:19;1.83;;;1.30;;
21804;SDS011;11064;47.102;15.452;2022-09-12T07:23:46;5.07;;;1.40;;
21804;SDS011;11064;47.102;15.452;2022-09-12T07:26:13;3.70;;;1.38;;
21804;SDS011;11064;47.102;15.452;2022-09-12T07:28:40;3.45;;;1.35;;
21804;SDS011;11064;47.102;15.452;2022-09-12T07:31:08;2.55;;;1.50;;
21804;SDS011;11064;47.102;15.452;2022-09-12T07:33:38;3.78;;;1.50;;
21804;SDS011;11064;47.102;15.452;2022-09-12T07:36:06;1.77;;;1.30;;
21804;SDS011;11064;47.102;15.452;2022-09-12T07:38:36;1.90;;;1.20;;
21804;SDS011;11064;47.102;15.452;2022-09-12T07:41:09;1.60;;;1.30;;
21804;SDS011;11064;47.102;15.452;2022-09-12T07:43:46;3.40;;;1.27;;
21804;SDS011;11064;47.102;15.452;2022-09-12T07:46:12;2.90;;;1.20;;
21804;SDS011;11064;47.102;15.452;2022-09-12T07:48:39;3.15;;;1.20;;
21804;SDS011;11064;47.102;15.452;2022-09-12T07:51:06;3.42;;;1.23;;
21804;SDS011;11064;47.102;15.452;2022-09-12T07:53:34;2.08;;;1.10;;
21804;SDS011;11064;47.102;15.452;2022-09-12T07:56:04;1.30;;;1.20;;
21804;SDS011;11064;47.102;15.452;2022-09-12T07:58:32;2.00;;;1.05;;
21804;SDS011;11064;47.102;15.452;2022-09-12T08:01:03;3.42;;;1.63;;
21804;SDS011;11064;47.102;15.452;2022-09-12T08:03:29;4.10;;;1.45;;
21804;SDS011;11064;47.102;15.452;2022-09-12T08:06:05;4.05;;;1.45;;
21804;SDS011;11064;47.102;15.452;2022-09-12T08:08:32;5.15;;;1.70;;
21804;SDS011;11064;47.102;15.452;2022-09-12T08:10:58;4.90;;;1.50;;
21804;SDS011;11064;47.102;15.452;2022-09-12T08:13:28;3.25;;;1.48;;
21804;SDS011;11064;47.102;15.452;2022-09-12T08:15:58;4.95;;;1.50;;
21804;SDS011;11064;47.102;15.452;2022-09-12T08:18:26;3.25;;;1.30;;
21804;SDS011;11064;47.102;15.452;2022-09-12T08:21:01;4.30;;;1.30;;
21804;SDS011;11064;47.102;15.452;2022-09-12T08:23:31;1.73;;;1.17;;
21804;SDS011;11064;47.102;15.452;2022-09-12T08:25:59;2.92;;;1.45;;
21804;SDS011;11064;47.102;15.452;2022-09-12T08:28:27;2.22;;;1.30;;
21804;SDS011;11064;47.102;15.452;2022-09-12T08:30:58;2.13;;;1.15;;
21804;SDS011;11064;47.102;15.452;2022-09-12T08:33:29;2.92;;;1.50;;
21804;SDS011;11064;47.102;15.452;2022-09-12T08:36:05;9.30;;;2.63;;
21804;SDS011;11064;47.102;15.452;2022-09-12T08:38:35;5.03;;;1.77;;
21804;SDS011;11064;47.102;15.452;2022-09-12T08:48:56;3.90;;;2.03;;
21804;SDS011;11064;47.102;15.452;2022-09-12T08:51:24;4.72;;;2.08;;
21804;SDS011;11064;47.102;15.452;2022-09-12T08:53:52;7.25;;;1.80;;
21804;SDS011;11064;47.102;15.452;2022-09-12T08:56:21;4.60;;;1.70;;
21804;SDS011;11064;47.102;15.452;2022-09-12T08:58:49;5.65;;;1.85;;
21804;SDS011;11064;47.102;15.452;2022-09-12T09:12:51;3.30;;;1.58;;
21804;SDS011;11064;47.102;15.452;2022-09-12T09:18:35;4.88;;;1.60;;
21804;SDS011;11064;47.102;15.452;2022-09-12T09:21:03;2.08;;;1.55;;
21804;SDS011;11064;47.102;15.452;2022-09-12T09:23:42;7.53;;;1.60;;
21804;SDS011;11064;47.102;15.452;2022-09-12T09:28:50;4.72;;;1.42;;
21804;SDS011;11064;47.102;15.452;2022-09-12T09:31:23;8.63;;;1.67;;
21804;SDS011;11064;47.102;15.452;2022-09-12T09:33:50;4.00;;;1.30;;
21804;SDS011;11064;47.102;15.452;2022-09-12T09:36:33;3.17;;;1.40;;
21804;SDS011;11064;47.102;15.452;2022-09-12T09:39:32;3.25;;;1.42;;
21804;SDS011;11064;47.102;15.452;2022-09-12T09:44:47;3.88;;;1.23;;
21804;SDS011;11064;47.102;15.452;2022-09-12T09:47:13;3.40;;;1.40;;
21804;SDS011;11064;47.102;15.452;2022-09-12T09:49:39;2.95;;;1.30;;
21804;SDS011;11064;47.102;15.452;2022-09-12T09:52:06;2.63;;;1.23;;
21804;SDS011;11064;47.102;15.452;2022-09-12T09:59:58;3.60;;;1.30;;
21804;SDS011;11064;47.102;15.452;2022-09-12T10:05:30;1.98;;;1.13;;
21804;SDS011;11064;47.102;15.452;2022-09-12T10:08:08;5.28;;;1.20;;
21804;SDS011;11064;47.102;15.452;2022-09-12T10:10:34;1.83;;;1.17;;
21804;SDS011;11064;47.102;15.452;2022-09-12T10:13:07;6.15;;;1.33;;
21804;SDS011;11064;47.102;15.452;2022-09-12T10:15:54;5.18;;;1.75;;
21804;SDS011;11064;47.102;15.452;2022-09-12T10:18:35;3.88;;;1.70;;
21804;SDS011;11064;47.102;15.452;2022-09-12T10:26:50;1.63;;;1.40;;
21804;SDS011;11064;47.102;15.452;2022-09-12T10:29:24;2.72;;;1.20;;
21804;SDS011;11064;47.102;15.452;2022-09-12T10:31:55;2.00;;;1.42;;
21804;SDS011;11064;47.102;15.452;2022-09-12T10:34:28;2.08;;;1.50;;
21804;SDS011;11064;47.102;15.452;2022-09-12T10:37:00;1.40;;;1.30;;
21804;SDS011;11064;47.102;15.452;2022-09-12T10:39:28;1.95;;;1.35;;
21804;SDS011;11064;47.102;15.452;2022-09-12T10:41:55;2.67;;;1.30;;
21804;SDS011;11064;47.102;15.452;2022-09-12T10:44:25;3.00;;;1.20;;
21804;SDS011;11064;47.102;15.452;2022-09-12T10:46:55;1.38;;;1.00;;
21804;SDS011;11064;47.102;15.452;2022-09-12T10:49:29;1.70;;;0.93;;
21804;SDS011;11064;47.102;15.452;2022-09-12T10:52:15;2.03;;;1.00;;
21804;SDS011;11064;47.102;15.452;2022-09-12T10:54:41;1.90;;;1.00;;
21804;SDS011;11064;47.102;15.452;2022-09-12T11:06:05;2.33;;;1.10;;
21804;SDS011;11064;47.102;15.452;2022-09-12T11:08:50;1.92;;;1.20;;
21804;SDS011;11064;47.102;15.452;2022-09-12T11:20:11;1.88;;;1.15;;
21804;SDS011;11064;47.102;15.452;2022-09-12T11:28:23;1.17;;;0.93;;
21804;SDS011;11064;47.102;15.452;2022-09-12T11:33:54;2.85;;;1.10;;
21804;SDS011;11064;47.102;15.452;2022-09-12T11:36:27;1.25;;;0.80;;
21804;SDS011;11064;47.102;15.452;2022-09-12T11:41:33;1.65;;;1.20;;
21804;SDS011;11064;47.102;15.452;2022-09-12T11:44:16;2.70;;;1.10;;
21804;SDS011;11064;47.102;15.452;2022-09-12T11:46:48;2.00;;;1.00;;
21804;SDS011;11064;47.102;15.452;2022-09-12T12:00:16;2.08;;;1.20;;
21804;SDS011;11064;47.102;15.452;2022-09-12T12:03:00;2.15;;;1.10;;
21804;SDS011;11064;47.102;15.452;2022-09-12T12:05:33;1.90;;;1.00;;
21804;SDS011;11064;47.102;15.452;2022-09-12T12:08:07;4.57;;;1.30;;
21804;SDS011;11064;47.102;15.452;2022-09-12T12:10:39;1.67;;;1.20;;
21804;SDS011;11064;47.102;15.452;2022-09-12T12:13:17;1.45;;;1.08;;
21804;SDS011;11064;47.102;15.452;2022-09-12T12:15:54;1.85;;;0.93;;
21804;SDS011;11064;47.102;15.452;2022-09-12T12:18:28;1.50;;;1.00;;
21804;SDS011;11064;47.102;15.452;2022-09-12T12:20:56;2.58;;;1.10;;
21804;SDS011;11064;47.102;15.452;2022-09-12T12:24:16;2.83;;;1.02;;
21804;SDS011;11064;47.102;15.452;2022-09-12T12:26:54;3.63;;;0.98;;
21804;SDS011;11064;47.102;15.452;2022-09-12T12:36:59;3.85;;;1.40;;
21804;SDS011;11064;47.102;15.452;2022-09-12T12:42:58;1.80;;;1.00;;
21804;SDS011;11064;47.102;15.452;2022-09-12T12:45:44;0.95;;;0.90;;
21804;SDS011;11064;47.102;15.452;2022-09-12T12:47:46;1.17;;;0.93;;
21804;SDS011;11064;47.102;15.452;2022-09-12T12:50:25;3.70;;;1.20;;
21804;SDS011;11064;47.102;15.452;2022-09-12T13:03:38;2.45;;;0.93;;
21804;SDS011;11064;47.102;15.452;2022-09-12T13:09:07;1.77;;;0.90;;
21804;SDS011;11064;47.102;15.452;2022-09-12T13:14:36;2.13;;;1.00;;
21804;SDS011;11064;47.102;15.452;2022-09-12T13:22:49;1.05;;;0.90;;
21804;SDS011;11064;47.102;15.452;2022-09-12T13:25:21;1.38;;;0.80;;
21804;SDS011;11064;47.102;15.452;2022-09-12T13:44:17;2.45;;;0.98;;
21804;SDS011;11064;47.102;15.452;2022-09-12T13:46:45;1.30;;;1.20;;
21804;SDS011;11064;47.102;15.452;2022-09-12T13:52:23;2.75;;;1.13;;
21804;SDS011;11064;47.102;15.452;2022-09-12T13:54:51;1.30;;;1.02;;
21804;SDS011;11064;47.102;15.452;2022-09-12T13:57:32;3.10;;;1.20;;
21804;SDS011;11064;47.102;15.452;2022-09-12T14:00:22;1.80;;;1.10;;
21804;SDS011;11064;47.102;15.452;2022-09-12T14:02:48;1.45;;;1.10;;
21804;SDS011;11064;47.102;15.452;2022-09-12T14:05:34;1.92;;;1.10;;
21804;SDS011;11064;47.102;15.452;2022-09-12T14:08:04;1.88;;;1.00;;
21804;SDS011;11064;47.102;15.452;2022-09-12T14:10:33;3.08;;;1.05;;
21804;SDS011;11064;47.102;15.452;2022-09-12T14:13:03;1.83;;;1.10;;
21804;SDS011;11064;47.102;15.452;2022-09-12T14:15:38;2.78;;;1.00;;
21804;SDS011;11064;47.102;15.452;2022-09-12T14:18:18;0.93;;;0.90;;
21804;SDS011;11064;47.102;15.452;2022-09-12T14:20:50;1.42;;;1.13;;
21804;SDS011;11064;47.102;15.452;2022-09-12T14:23:23;1.20;;;1.10;;
21804;SDS011;11064;47.102;15.452;2022-09-12T14:26:02;1.30;;;1.20;;
21804;SDS011;11064;47.102;15.452;2022-09-12T14:28:30;1.88;;;1.10;;
21804;SDS011;11064;47.102;15.452;2022-09-12T14:31:33;1.10;;;1.00;;
21804;SDS011;11064;47.102;15.452;2022-09-12T14:36:52;1.55;;;1.00;;
21804;SDS011;11064;47.102;15.452;2022-09-12T14:39:31;3.95;;;1.00;;
21804;SDS011;11064;47.102;15.452;2022-09-12T14:42:20;1.20;;;1.00;;
21804;SDS011;11064;47.102;15.452;2022-09-12T14:45:02;2.30;;;0.95;;
21804;SDS011;11064;47.102;15.452;2022-09-12T14:47:39;3.92;;;1.10;;
21804;SDS011;11064;47.102;15.452;2022-09-12T14:50:17;1.20;;;1.08;;
21804;SDS011;11064;47.102;15.452;2022-09-12T14:53:01;2.08;;;1.30;;
21804;SDS011;11064;47.102;15.452;2022-09-12T14:55:33;1.23;;;1.13;;
21804;SDS011;11064;47.102;15.452;2022-09-12T14:58:27;2.67;;;1.20;;
21804;SDS011;11064;47.102;15.452;2022-09-12T15:03:23;1.52;;;1.15;;
21804;SDS011;11064;47.102;15.452;2022-09-12T15:06:00;1.92;;;1.17;;
21804;SDS011;11064;47.102;15.452;2022-09-12T15:08:28;1.77;;;0.90;;
21804;SDS011;11064;47.102;15.452;2022-09-12T15:10:55;2.20;;;1.00;;
21804;SDS011;11064;47.102;15.452;2022-09-12T15:13:26;2.47;;;1.20;;
21804;SDS011;11064;47.102;15.452;2022-09-12T15:18:23;3.10;;;1.10;;
21804;SDS011;11064;47.102;15.452;2022-09-12T15:20:51;3.45;;;1.05;;
21804;SDS011;11064;47.102;15.452;2022-09-12T15:26:13;1.67;;;1.10;;
21804;SDS011;11064;47.102;15.452;2022-09-12T15:28:47;0.93;;;0.90;;
21804;SDS011;11064;47.102;15.452;2022-09-12T15:33:44;1.95;;;1.10;;
21804;SDS011;11064;47.102;15.452;2022-09-12T15:36:17;1.58;;;0.93;;
21804;SDS011;11064;47.102;15.452;2022-09-12T15:38:45;1.42;;;1.10;;
21804;SDS011;11064;47.102;15.452;2022-09-12T15:41:16;3.00;;;1.00;;
21804;SDS011;11064;47.102;15.452;2022-09-12T15:44:02;1.85;;;1.13;;
21804;SDS011;11064;47.102;15.452;2022-09-12T15:46:29;1.20;;;1.00;;
21804;SDS011;11064;47.102;15.452;2022-09-12T15:48:55;2.13;;;1.17;;
21804;SDS011;11064;47.102;15.452;2022-09-12T15:51:21;2.70;;;1.13;;
21804;SDS011;11064;47.102;15.452;2022-09-12T15:53:47;1.45;;;1.20;;
21804;SDS011;11064;47.102;15.452;2022-09-12T15:56:15;1.77;;;1.00;;
21804;SDS011;11064;47.102;15.452;2022-09-12T15:58:42;4.43;;;1.10;;
21804;SDS011;11064;47.102;15.452;2022-09-12T16:01:11;1.33;;;1.20;;
21804;SDS011;11064;47.102;15.452;2022-09-12T16:03:38;3.63;;;1.30;;
21804;SDS011;11064;47.102;15.452;2022-09-12T16:06:04;1.52;;;1.27;;
21804;SDS011;11064;47.102;15.452;2022-09-12T16:08:31;1.48;;;1.27;;
21804;SDS011;11064;47.102;15.452;2022-09-12T16:10:59;3.08;;;1.35;;
21804;SDS011;11064;47.102;15.452;2022-09-12T16:13:28;1.95;;;1.30;;
21804;SDS011;11064;47.102;15.452;2022-09-12T16:15:57;2.45;;;1.27;;
21804;SDS011;11064;47.102;15.452;2022-09-12T16:18:23;2.28;;;1.23;;
21804;SDS011;11064;47.102;15.452;2022-09-12T16:20:53;1.85;;;1.30;;
21804;SDS011;11064;47.102;15.452;2022-09-12T16:23:19;1.38;;;1.27;;
21804;SDS011;11064;47.102;15.452;2022-09-12T16:25:54;3.70;;;1.30;;
21804;SDS011;11064;47.102;15.452;2022-09-12T16:28:24;2.63;;;1.30;;
21804;SDS011;11064;47.102;15.452;2022-09-12T16:31:01;4.40;;;1.25;;
21804;SDS011;11064;47.102;15.452;2022-09-12T16:33:29;1.20;;;1.10;;
21804;SDS011;11064;47.102;15.452;2022-09-12T16:36:00;2.92;;;1.50;;
21804;SDS011;11064;47.102;15.452;2022-09-12T16:38:28;2.03;;;1.40;;
21804;SDS011;11064;47.102;15.452;2022-09-12T16:41:04;1.50;;;1.30;;
21804;SDS011;11064;47.102;15.452;2022-09-12T16:43:32;1.77;;;1.40;;
21804;SDS011;11064;47.102;15.452;2022-09-12T16:46:06;2.22;;;1.40;;
21804;SDS011;11064;47.102;15.452;2022-09-12T16:48:34;2.70;;;1.30;;
21804;SDS011;11064;47.102;15.452;2022-09-12T16:51:00;2.03;;;1.42;;
21804;SDS011;11064;47.102;15.452;2022-09-12T16:53:29;2.67;;;1.60;;
21804;SDS011;11064;47.102;15.452;2022-09-12T16:55:56;2.30;;;1.67;;
21804;SDS011;11064;47.102;15.452;2022-09-12T16:58:22;1.95;;;1.75;;
21804;SDS011;11064;47.102;15.452;2022-09-12T17:00:47;1.58;;;1.48;;
21804;SDS011;11064;47.102;15.452;2022-09-12T17:03:13;1.60;;;1.50;;
21804;SDS011;11064;47.102;15.452;2022-09-12T17:05:41;1.65;;;1.55;;
21804;SDS011;11064;47.102;15.452;2022-09-12T17:08:06;3.45;;;1.70;;
21804;SDS011;11064;47.102;15.452;2022-09-12T17:10:33;1.98;;;1.67;;
21804;SDS011;11064;47.102;15.452;2022-09-12T17:13:00;2.35;;;1.70;;
21804;SDS011;11064;47.102;15.452;2022-09-12T17:15:26;1.80;;;1.70;;
21804;SDS011;11064;47.102;15.452;2022-09-12T17:17:52;2.25;;;1.60;;
21804;SDS011;11064;47.102;15.452;2022-09-12T17:20:18;3.45;;;1.83;;
21804;SDS011;11064;47.102;15.452;2022-09-12T17:22:43;1.95;;;1.75;;
21804;SDS011;11064;47.102;15.452;2022-09-12T17:25:09;2.70;;;1.77;;
21804;SDS011;11064;47.102;15.452;2022-09-12T17:27:35;2.03;;;1.80;;
21804;SDS011;11064;47.102;15.452;2022-09-12T17:30:01;2.13;;;1.85;;
21804;SDS011;11064;47.102;15.452;2022-09-12T17:32:28;3.47;;;1.80;;
21804;SDS011;11064;47.102;15.452;2022-09-12T17:34:54;2.10;;;1.90;;
21804;SDS011;11064;47.102;15.452;2022-09-12T17:37:20;3.47;;;2.00;;
21804;SDS011;11064;47.102;15.452;2022-09-12T17:39:45;3.88;;;2.20;;
21804;SDS011;11064;47.102;15.452;2022-09-12T17:42:11;2.47;;;2.15;;
21804;SDS011;11064;47.102;15.452;2022-09-12T17:44:37;2.65;;;2.40;;
21804;SDS011;11064;47.102;15.452;2022-09-12T17:47:02;2.80;;;2.50;;
21804;SDS011;11064;47.102;15.452;2022-09-12T17:49:29;4.32;;;2.50;;
21804;SDS011;11064;47.102;15.452;2022-09-12T17:51:55;5.68;;;2.47;;
21804;SDS011;11064;47.102;15.452;2022-09-12T17:54:21;2.97;;;2.60;;
21804;SDS011;11064;47.102;15.452;2022-09-12T17:56:48;2.95;;;2.30;;
21804;SDS011;11064;47.102;15.452;2022-09-12T17:59:19;3.95;;;2.70;;
21804;SDS011;11064;47.102;15.452;2022-09-12T18:01:48;4.97;;;2.63;;
21804;SDS011;11064;47.102;15.452;2022-09-12T18:04:32;3.45;;;2.88;;
21804;SDS011;11064;47.102;15.452;2022-09-12T18:06:58;2.88;;;2.67;;
21804;SDS011;11064;47.102;15.452;2022-09-12T18:09:24;3.10;;;2.60;;
21804;SDS011;11064;47.102;15.452;2022-09-12T18:11:52;5.28;;;2.85;;
21804;SDS011;11064;47.102;15.452;2022-09-12T18:14:18;4.50;;;2.75;;
21804;SDS011;11064;47.102;15.452;2022-09-12T18:16:45;2.95;;;2.63;;
21804;SDS011;11064;47.102;15.452;2022-09-12T18:19:11;6.13;;;2.75;;
21804;SDS011;11064;47.102;15.452;2022-09-12T18:21:38;2.92;;;2.70;;
21804;SDS011;11064;47.102;15.452;2022-09-12T18:24:04;3.38;;;2.70;;
21804;SDS011;11064;47.102;15.452;2022-09-12T18:26:30;5.00;;;2.80;;
21804;SDS011;11064;47.102;15.452;2022-09-12T18:28:58;4.78;;;2.90;;
21804;SDS011;11064;47.102;15.452;2022-09-12T18:31:25;5.68;;;2.90;;
21804;SDS011;11064;47.102;15.452;2022-09-12T18:33:53;3.33;;;2.90;;
21804;SDS011;11064;47.102;15.452;2022-09-12T18:36:19;5.57;;;2.90;;
21804;SDS011;11064;47.102;15.452;2022-09-12T18:38:46;3.13;;;2.80;;
21804;SDS011;11064;47.102;15.452;2022-09-12T18:41:14;5.25;;;2.65;;
21804;SDS011;11064;47.102;15.452;2022-09-12T18:43:41;4.32;;;3.08;;
21804;SDS011;11064;47.102;15.452;2022-09-12T18:46:17;3.97;;;2.80;;
21804;SDS011;11064;47.102;15.452;2022-09-12T18:48:43;3.20;;;2.90;;
21804;SDS011;11064;47.102;15.452;2022-09-12T18:51:17;3.38;;;2.95;;
21804;SDS011;11064;47.102;15.452;2022-09-12T18:53:48;5.30;;;3.00;;
21804;SDS011;11064;47.102;15.452;2022-09-12T18:56:20;2.60;;;2.40;;
21804;SDS011;11064;47.102;15.452;2022-09-12T18:58:55;3.17;;;2.80;;
21804;SDS011;11064;47.102;15.452;2022-09-12T19:01:24;4.13;;;2.70;;
21804;SDS011;11064;47.102;15.452;2022-09-12T19:03:52;3.38;;;2.80;;
21804;SDS011;11064;47.102;15.452;2022-09-12T19:06:23;3.42;;;2.58;;
21804;SDS011;11064;47.102;15.452;2022-09-12T19:08:53;3.40;;;3.10;;
21804;SDS011;11064;47.102;15.452;2022-09-12T19:11:20;4.55;;;2.70;;
21804;SDS011;11064;47.102;15.452;2022-09-12T19:13:48;5.13;;;2.80;;
21804;SDS011;11064;47.102;15.452;2022-09-12T19:16:17;2.95;;;2.63;;
21804;SDS011;11064;47.102;15.452;2022-09-12T19:18:45;3.20;;;2.90;;
21804;SDS011;11064;47.102;15.452;2022-09-12T19:21:14;4.03;;;2.60;;
21804;SDS011;11064;47.102;15.452;2022-09-12T19:23:42;6.03;;;2.55;;
21804;SDS011;11064;47.102;15.452;2022-09-12T19:26:09;4.32;;;2.78;;
21804;SDS011;11064;47.102;15.452;2022-09-12T19:28:37;3.38;;;2.80;;
21804;SDS011;11064;47.102;15.452;2022-09-12T19:31:04;4.57;;;2.80;;
21804;SDS011;11064;47.102;15.452;2022-09-12T19:33:31;3.00;;;2.70;;
21804;SDS011;11064;47.102;15.452;2022-09-12T19:36:03;5.50;;;2.70;;
21804;SDS011;11064;47.102;15.452;2022-09-12T19:38:31;3.50;;;2.90;;
21804;SDS011;11064;47.102;15.452;2022-09-12T19:40:57;3.92;;;2.70;;
21804;SDS011;11064;47.102;15.452;2022-09-12T19:43:24;4.35;;;2.78;;
21804;SDS011;11064;47.102;15.452;2022-09-12T19:45:50;3.67;;;2.88;;
21804;SDS011;11064;47.102;15.452;2022-09-12T19:48:16;3.00;;;2.70;;
21804;SDS011;11064;47.102;15.452;2022-09-12T19:50:43;4.05;;;2.90;;
21804;SDS011;11064;47.102;15.452;2022-09-12T19:53:09;3.53;;;2.88;;
21804;SDS011;11064;47.102;15.452;2022-09-12T19:55:35;3.67;;;3.00;;
21804;SDS011;11064;47.102;15.452;2022-09-12T19:58:01;3.25;;;2.95;;
21804;SDS011;11064;47.102;15.452;2022-09-12T20:00:30;5.32;;;3.15;;
21804;SDS011;11064;47.102;15.452;2022-09-12T20:02:56;4.63;;;3.35;;
21804;SDS011;11064;47.102;15.452;2022-09-12T20:05:22;4.28;;;3.03;;
21804;SDS011;11064;47.102;15.452;2022-09-12T20:07:48;3.35;;;3.05;;
21804;SDS011;11064;47.102;15.452;2022-09-12T20:10:14;3.92;;;3.00;;
21804;SDS011;11064;47.102;15.452;2022-09-12T20:12:40;5.72;;;2.90;;
21804;SDS011;11064;47.102;15.452;2022-09-12T20:15:06;3.70;;;3.13;;
21804;SDS011;11064;47.102;15.452;2022-09-12T20:17:33;6.70;;;2.95;;
21804;SDS011;11064;47.102;15.452;2022-09-12T20:19:59;4.47;;;2.85;;
21804;SDS011;11064;47.102;15.452;2022-09-12T20:22:25;5.10;;;3.60;;
21804;SDS011;11064;47.102;15.452;2022-09-12T20:24:51;5.78;;;3.28;;
21804;SDS011;11064;47.102;15.452;2022-09-12T20:27:17;4.68;;;3.38;;
21804;SDS011;11064;47.102;15.452;2022-09-12T20:29:43;5.95;;;3.60;;
21804;SDS011;11064;47.102;15.452;2022-09-12T20:32:09;4.60;;;3.50;;
21804;SDS011;11064;47.102;15.452;2022-09-12T20:34:34;5.72;;;3.78;;
21804;SDS011;11064;47.102;15.452;2022-09-12T20:37:00;5.00;;;3.38;;
21804;SDS011;11064;47.102;15.452;2022-09-12T20:39:26;6.20;;;3.97;;
21804;SDS011;11064;47.102;15.452;2022-09-12T20:41:52;4.30;;;3.90;;
21804;SDS011;11064;47.102;15.452;2022-09-12T20:44:18;5.18;;;3.42;;
21804;SDS011;11064;47.102;15.452;2022-09-12T20:46:44;5.97;;;3.80;;
21804;SDS011;11064;47.102;15.452;2022-09-12T20:49:09;4.90;;;3.78;;
21804;SDS011;11064;47.102;15.452;2022-09-12T20:51:35;4.65;;;3.60;;
21804;SDS011;11064;47.102;15.452;2022-09-12T20:54:02;5.78;;;3.83;;
21804;SDS011;11064;47.102;15.452;2022-09-12T20:56:30;4.55;;;3.90;;
21804;SDS011;11064;47.102;15.452;2022-09-12T20:58:58;7.43;;;4.05;;
21804;SDS011;11064;47.102;15.452;2022-09-12T21:01:25;5.85;;;4.25;;
21804;SDS011;11064;47.102;15.452;2022-09-12T21:03:52;7.60;;;4.15;;
21804;SDS011;11064;47.102;15.452;2022-09-12T21:06:18;4.97;;;3.90;;
21804;SDS011;11064;47.102;15.452;2022-09-12T21:08:45;4.53;;;3.67;;
21804;SDS011;11064;47.102;15.452;2022-09-12T21:11:12;4.40;;;4.00;;
21804;SDS011;11064;47.102;15.452;2022-09-12T21:13:39;5.05;;;4.10;;
21804;SDS011;11064;47.102;15.452;2022-09-12T21:16:12;5.32;;;4.05;;
21804;SDS011;11064;47.102;15.452;2022-09-12T21:18:40;4.15;;;3.65;;